Time;durP1;ratioP1;P1;durP2;ratioP2;P2;SDS_P1;SDS_P2;PMS_P1;PMS_P2;Temp;Humidity;BMP_temperature;BMP_pressure;BME280_temperature;BME280_humidity;BME280_pressure;Samples;Min_cycle;Max_cycle;Signal;HPM_P1;HPM_P2
2021/05/16 00:00:49;;;;;;;62.58;35.20;;;;;;;30.35;61.13;100706.91;5052332;28;66137;-37
2021/05/16 00:03:22;;;;;;;74.88;37.00;;;;;;;30.40;62.31;100707.06;5055985;28;70062;-38
2021/05/16 00:05:52;;;;;;;58.78;37.13;;;;;;;30.42;62.49;100713.91;5058274;28;65846;-38
2021/05/16 00:08:23;;;;;;;77.07;35.35;;;;;;;30.55;62.49;100731.91;5058437;28;68908;-37
2021/05/16 00:10:53;;;;;;;50.05;25.77;;;;;;;30.30;63.59;100685.06;5065508;27;66039;-38
2021/05/16 00:13:24;;;;;;;39.25;22.58;;;;;;;30.53;64.57;100720.47;5051357;28;69870;-36
2021/05/16 00:15:55;;;;;;;43.40;20.67;;;;;;;30.59;63.95;100716.88;5055746;28;66049;-36
2021/05/16 00:18:26;;;;;;;47.35;20.65;;;;;;;30.62;64.08;100727.28;5052773;28;69879;-37
2021/05/16 00:20:56;;;;;;;38.05;19.25;;;;;;;30.65;63.75;100732.22;5053473;28;66030;-37
2021/05/16 00:23:27;;;;;;;32.22;19.38;;;;;;;30.64;64.49;100732.44;5051902;28;69792;-36
2021/05/16 00:26:03;;;;;;;39.00;19.55;;;;;;;30.66;65.36;100733.88;5051844;28;66245;-36
2021/05/16 00:28:34;;;;;;;28.00;18.88;;;;;;;30.68;64.85;100729.06;5055255;28;69307;-36
2021/05/16 00:31:04;;;;;;;29.27;17.70;;;;;;;30.64;65.60;100741.38;5072220;27;67549;-36
2021/05/16 00:33:35;;;;;;;32.75;17.27;;;;;;;30.61;65.40;100744.53;5056474;28;69179;-36
2021/05/16 00:36:06;;;;;;;26.08;17.95;;;;;;;30.65;65.38;100729.53;5050337;28;65527;-36
2021/05/16 00:38:36;;;;;;;34.25;16.85;;;;;;;30.73;65.38;100745.50;5057375;28;69886;-36
2021/05/16 00:41:07;;;;;;;31.35;17.85;;;;;;;30.72;66.03;100743.81;5051382;28;66321;-36
2021/05/16 00:43:37;;;;;;;34.80;18.48;;;;;;;30.84;64.90;100751.25;5055687;28;69429;-35
2021/05/16 00:46:09;;;;;;;30.30;18.67;;;;;;;30.87;65.68;100762.47;5054891;28;65319;-37
2021/05/16 00:48:40;;;;;;;27.95;17.52;;;;;;;30.89;65.09;100754.09;5057021;28;69670;-38
2021/05/16 00:51:12;;;;;;;28.55;14.90;;;;;;;30.91;65.02;100768.25;5045728;28;66703;-37
2021/05/16 00:53:42;;;;;;;19.23;14.95;;;;;;;30.93;65.08;100771.59;5057456;28;70175;-37
2021/05/16 00:56:13;;;;;;;17.92;14.45;;;;;;;30.94;65.34;100784.06;5053319;28;65235;-41
2021/05/16 00:58:44;;;;;;;17.77;12.77;;;;;;;31.02;64.75;100786.50;5050792;28;69976;-41
2021/05/16 01:01:17;;;;;;;13.55;12.13;;;;;;;31.00;65.26;100796.72;5071172;27;66055;-43
2021/05/16 01:03:55;;;;;;;17.58;10.82;;;;;;;30.84;65.02;100762.06;5050155;28;68393;-39
2021/05/16 01:06:25;;;;;;;14.60;9.98;;;;;;;31.02;65.28;100791.09;5064291;28;65039;-38
2021/05/16 01:09:00;;;;;;;13.40;9.33;;;;;;;30.99;65.09;100786.94;5063199;28;69543;-38
2021/05/16 01:11:32;;;;;;;12.10;9.93;;;;;;;31.07;65.58;100783.94;5055890;28;66443;-40
2021/05/16 01:14:06;;;;;;;14.38;8.77;;;;;;;31.09;64.88;100781.84;5058692;28;70036;-39
2021/05/16 01:16:37;;;;;;;11.73;8.50;;;;;;;31.19;65.36;100796.75;5070755;27;66103;-39
2021/05/16 01:19:09;;;;;;;13.07;7.72;;;;;;;31.22;64.77;100796.28;5059430;28;70837;-39
2021/05/16 01:21:41;;;;;;;9.02;7.20;;;;;;;31.25;64.41;100796.66;5059231;28;66407;-39
2021/05/16 01:24:17;;;;;;;10.98;6.80;;;;;;;31.32;64.98;100807.44;5058185;27;69950;-41
2021/05/16 01:26:59;;;;;;;11.13;7.65;;;;;;;31.32;64.96;100793.91;5057549;28;65139;-44
2021/05/16 01:29:31;;;;;;;7.38;6.18;;;;;;;31.37;65.31;100803.03;5057326;28;69277;-41
2021/05/16 01:32:01;;;;;;;16.13;6.43;;;;;;;31.45;64.51;100811.91;5058798;28;66224;-43
2021/05/16 01:34:32;;;;;;;7.90;6.13;;;;;;;31.51;64.77;100811.00;5051886;28;69043;-43
2021/05/16 01:37:04;;;;;;;10.95;5.95;;;;;;;31.51;64.53;100800.16;5054780;28;64984;-44
2021/05/16 01:39:36;;;;;;;8.60;6.37;;;;;;;31.53;64.18;100804.31;5058374;28;69977;-43
2021/05/16 01:42:08;;;;;;;6.97;5.82;;;;;;;31.39;64.69;100781.94;5059201;28;65461;-43
2021/05/16 01:44:39;;;;;;;8.55;5.55;;;;;;;31.57;64.47;100796.56;5050740;28;70549;-42
2021/05/16 01:47:10;;;;;;;11.20;6.68;;;;;;;31.65;64.20;100795.41;5059610;28;66237;-43
2021/05/16 01:49:47;;;;;;;18.27;14.10;;;;;;;31.30;63.44;100745.34;5059809;28;70221;-43
2021/05/16 01:52:18;;;;;;;32.10;19.40;;;;;;;31.69;63.56;100797.44;5057108;28;65119;-42
2021/05/16 01:54:49;;;;;;;21.10;13.68;;;;;;;31.67;63.62;100804.97;5058684;28;69973;-41
2021/05/16 01:57:21;;;;;;;18.52;12.10;;;;;;;31.59;64.03;100795.28;5057302;28;66080;-43
2021/05/16 01:59:52;;;;;;;21.67;10.30;;;;;;;31.81;63.85;100800.22;5049241;28;70138;-43
2021/05/16 02:02:22;;;;;;;17.23;8.43;;;;;;;31.81;63.30;100805.63;5064263;27;66377;-42
2021/05/16 02:04:53;;;;;;;10.52;7.82;;;;;;;31.86;63.39;100803.06;5049308;28;69136;-45
2021/05/16 02:07:24;;;;;;;11.50;7.80;;;;;;;31.88;62.94;100797.44;5055073;28;65962;-43
2021/05/16 02:09:54;;;;;;;26.60;8.15;;;;;;;31.86;63.00;100797.63;5057633;28;69728;-44
2021/05/16 02:12:27;;;;;;;12.82;7.88;;;;;;;31.81;63.23;100792.06;5058205;28;65096;-43
2021/05/16 02:14:58;;;;;;;9.93;7.28;;;;;;;31.91;62.99;100799.69;5063203;28;69846;-45
2021/05/16 02:17:29;;;;;;;12.20;7.20;;;;;;;31.84;62.60;100799.75;5060292;28;65722;-45
2021/05/16 02:19:59;;;;;;;10.23;7.20;;;;;;;31.87;62.66;100799.28;5050431;28;70245;-42
2021/05/16 02:22:34;;;;;;;15.40;8.45;;;;;;;31.81;62.57;100794.78;5050023;28;65896;-43
2021/05/16 02:25:07;;;;;;;17.85;9.48;;;;;;;31.93;63.37;100808.44;5053584;28;69564;-41
2021/05/16 02:27:47;;;;;;;34.95;10.60;;;;;;;32.05;63.14;100804.72;5010003;28;66123;-43
2021/05/16 02:30:23;;;;;;;28.35;9.55;;;;;;;32.13;62.93;100798.13;5050787;28;69304;-45
2021/05/16 02:32:56;;;;;;;14.07;8.02;;;;;;;32.22;63.19;100810.31;5054201;28;66076;-44
2021/05/16 02:35:30;;;;;;;20.38;8.68;;;;;;;32.23;62.82;100808.44;5053430;28;69835;-45
2021/05/16 02:38:06;;;;;;;23.38;9.73;;;;;;;32.28;63.44;100822.94;5054307;28;65580;-44
2021/05/16 02:40:37;;;;;;;28.40;11.32;;;;;;;32.30;63.20;100802.91;5038830;28;69116;-44
2021/05/16 02:43:09;;;;;;;39.85;16.70;;;;;;;32.22;64.53;100806.78;5046682;28;66019;-42
2021/05/16 02:45:39;;;;;;;14.52;10.68;;;;;;;32.19;64.27;100805.34;5059358;28;70193;-41
2021/05/16 02:48:24;;;;;;;25.05;9.80;;;;;;;32.32;63.70;100806.19;5057936;28;65255;-39
2021/05/16 02:50:56;;;;;;;22.52;9.10;;;;;;;32.30;62.66;100802.91;5050308;28;69156;-44
2021/05/16 02:53:41;;;;;;;59.75;12.32;;;;;;;32.32;63.91;100807.06;5056013;28;66335;-41
2021/05/16 02:56:29;;;;;;;37.05;10.77;;;;;;;32.34;63.83;100804.91;5055881;28;69465;-35
2021/05/16 02:59:09;;;;;;;34.33;10.27;;;;;;;32.23;62.41;100793.00;5054438;28;65363;-36
2021/05/16 03:01:40;;;;;;;111.75;12.18;;;;;;;31.97;63.23;100805.03;5063340;28;70575;-37
2021/05/16 03:04:12;;;;;;;19.17;9.73;;;;;;;31.57;62.77;100800.09;5056945;28;66406;-36
2021/05/16 03:06:43;;;;;;;12.70;10.30;;;;;;;31.52;64.00;100802.66;5050769;28;70882;-39
2021/05/16 03:09:14;;;;;;;19.33;10.57;;;;;;;31.46;63.96;100797.31;5056606;28;65984;-38
2021/05/16 03:11:45;;;;;;;15.55;10.63;;;;;;;31.42;62.67;100785.25;5050667;28;70014;-37
2021/05/16 03:14:19;;;;;;;30.77;10.18;;;;;;;31.27;59.96;100777.47;5053167;28;66528;-37
2021/05/16 03:16:50;;;;;;;25.47;10.17;;;;;;;31.04;57.92;100760.00;5050474;27;70131;-36
2021/05/16 03:19:21;;;;;;;27.75;9.15;;;;;;;30.99;56.11;100764.44;5053419;28;66671;-38
2021/05/16 03:21:53;;;;;;;44.75;8.95;;;;;;;30.78;54.67;100776.47;5037878;28;68941;-38
2021/05/16 03:24:30;;;;;;;36.38;9.52;;;;;;;30.70;55.97;100772.16;5055260;28;65516;-37
2021/05/16 03:27:04;;;;;;;32.20;9.27;;;;;;;30.57;54.51;100773.13;5056032;28;69423;-36
2021/05/16 03:29:35;;;;;;;21.23;8.27;;;;;;;30.34;52.93;100752.06;5051344;28;66635;-37
2021/05/16 03:32:10;;;;;;;22.58;8.60;;;;;;;30.37;51.61;100770.56;5057091;28;69763;-36
2021/05/16 03:34:40;;;;;;;23.88;7.72;;;;;;;30.23;50.14;100761.72;5052979;28;65834;-38
2021/05/16 03:37:15;;;;;;;21.92;7.72;;;;;;;30.12;49.57;100759.69;5058458;28;69854;-36
2021/05/16 03:39:47;;;;;;;17.35;6.63;;;;;;;29.95;47.14;100748.56;5052906;28;64557;-38
2021/05/16 03:42:18;;;;;;;15.35;7.35;;;;;;;29.95;48.12;100755.81;5055008;28;69809;-39
2021/05/16 03:44:49;;;;;;;8.40;6.80;;;;;;;29.88;46.93;100757.75;5059077;28;66234;-37
2021/05/16 03:47:20;;;;;;;15.02;6.85;;;;;;;29.77;46.14;100751.16;5055174;28;69032;-38
2021/05/16 03:49:51;;;;;;;13.40;6.80;;;;;;;29.59;45.60;100738.31;5054421;28;65523;-38
2021/05/16 03:52:25;;;;;;;8.25;6.38;;;;;;;29.55;45.77;100734.38;5055135;28;70111;-38
2021/05/16 03:54:56;;;;;;;22.60;6.67;;;;;;;29.48;46.42;100725.47;5056977;27;66076;-39
2021/05/16 03:57:31;;;;;;;14.27;6.18;;;;;;;29.54;48.92;100747.06;5055818;28;70046;-37
2021/05/16 04:00:06;;;;;;;18.45;5.53;;;;;;;29.50;48.59;100742.28;5054451;28;66125;-38
2021/05/16 04:02:45;;;;;;;16.40;5.80;;;;;;;29.45;48.52;100731.28;5056330;28;70666;-35
2021/05/16 04:05:18;;;;;;;28.30;6.10;;;;;;;29.37;47.08;100738.59;5053056;28;66276;-40
2021/05/16 04:07:49;;;;;;;12.93;6.38;;;;;;;29.27;46.65;100737.41;5052915;28;70348;-37
2021/05/16 04:10:21;;;;;;;10.70;5.93;;;;;;;29.26;46.88;100743.84;5055250;27;66336;-38
2021/05/16 04:12:53;;;;;;;13.30;6.20;;;;;;;29.16;46.40;100728.91;5058716;28;69968;-37
2021/05/16 04:15:30;;;;;;;21.27;6.57;;;;;;;29.18;46.44;100742.19;5056200;28;66488;-38
2021/05/16 04:18:01;;;;;;;17.25;7.32;;;;;;;29.23;53.19;100738.88;5054773;28;70390;-38
2021/05/16 04:20:32;;;;;;;19.17;6.63;;;;;;;29.31;52.67;100741.31;5049031;28;65687;-36
2021/05/16 04:23:03;;;;;;;12.70;6.05;;;;;;;29.31;50.79;100734.06;5056680;28;70338;-38
2021/05/16 04:25:40;;;;;;;11.73;5.72;;;;;;;29.31;49.14;100734.06;5060492;28;65468;-38
2021/05/16 04:28:13;;;;;;;13.48;6.45;;;;;;;29.27;49.08;100732.81;5060327;28;69860;-37
2021/05/16 04:30:49;;;;;;;18.88;6.10;;;;;;;29.24;47.86;100722.44;5056993;28;66201;-38
2021/05/16 04:33:25;;;;;;;15.75;5.65;;;;;;;29.10;46.90;100710.84;5062673;28;70030;-37
2021/05/16 04:35:59;;;;;;;20.08;5.57;;;;;;;28.68;45.74;100647.38;5059491;28;66240;-37
2021/05/16 04:38:34;;;;;;;25.35;5.75;;;;;;;29.06;45.48;100716.88;5060407;28;69817;-37
2021/05/16 04:41:05;;;;;;;14.55;5.00;;;;;;;29.04;44.51;100713.56;5054537;28;65966;-36
2021/05/16 04:43:36;;;;;;;16.43;4.93;;;;;;;28.96;44.26;100707.31;5058567;28;69850;-35
2021/05/16 04:46:08;;;;;;;6.47;4.55;;;;;;;28.87;44.55;100681.59;5061462;28;65713;-37
2021/05/16 04:48:42;;;;;;;14.15;5.18;;;;;;;28.93;44.00;100702.34;5062613;28;69699;-35
2021/05/16 04:51:18;;;;;;;16.27;4.72;;;;;;;28.91;45.06;100698.19;5054787;28;66115;-36
2021/05/16 04:53:49;;;;;;;19.80;5.07;;;;;;;28.86;45.03;100679.94;5058071;28;69895;-38
2021/05/16 04:56:27;;;;;;;33.13;5.00;;;;;;;28.65;44.40;100637.00;5057742;28;64841;-37
2021/05/16 04:59:02;;;;;;;30.60;4.85;;;;;;;28.90;44.47;100683.88;5058820;28;69350;-39
2021/05/16 05:01:37;;;;;;;39.28;5.13;;;;;;;28.58;45.25;100619.97;5058992;28;65991;-36
2021/05/16 05:04:10;;;;;;;36.45;5.13;;;;;;;28.96;45.00;100682.19;5058537;28;71496;-37
2021/05/16 05:06:43;;;;;;;37.45;6.38;;;;;;;28.93;44.75;100682.63;5057221;28;66600;-38
2021/05/16 05:09:16;;;;;;;32.83;4.70;;;;;;;28.90;43.12;100681.16;5056364;28;69765;-37
2021/05/16 05:12:02;;;;;;;19.90;4.55;;;;;;;28.88;43.18;100672.44;5060318;28;66622;-38
2021/05/16 05:14:34;;;;;;;23.05;4.43;;;;;;;28.87;43.19;100670.78;5058658;28;69234;-37
2021/05/16 05:17:05;;;;;;;15.60;3.90;;;;;;;28.80;43.01;100669.16;5060263;28;64916;-37
2021/05/16 05:19:38;;;;;;;13.32;4.82;;;;;;;28.80;43.00;100671.84;5062657;27;69811;-36
2021/05/16 05:22:18;;;;;;;8.35;3.80;;;;;;;28.73;42.71;100661.06;5056551;28;66477;-38
2021/05/16 05:24:51;;;;;;;18.73;3.47;;;;;;;28.76;42.10;100668.75;5054801;28;70139;-37
2021/05/16 05:27:24;;;;;;;13.90;3.95;;;;;;;28.75;42.31;100661.66;5052952;28;66459;-39
2021/05/16 05:30:04;;;;;;;12.88;3.83;;;;;;;28.65;42.23;100634.31;5057437;28;69181;-39
2021/05/16 05:32:37;;;;;;;13.20;3.63;;;;;;;28.72;42.59;100641.34;5058437;28;66944;-36
2021/05/16 05:35:15;;;;;;;12.20;3.97;;;;;;;28.71;41.62;100644.25;5058380;28;69548;-36
2021/05/16 05:37:57;;;;;;;13.43;3.50;;;;;;;28.64;41.49;100627.22;5056321;28;66676;-37
2021/05/16 05:40:34;;;;;;;17.40;3.40;;;;;;;28.69;41.04;100624.72;5057626;28;70657;-37
2021/05/16 05:43:07;;;;;;;14.52;3.63;;;;;;;28.76;40.38;100622.84;5055814;28;66148;-36
2021/05/16 05:45:43;;;;;;;8.30;3.33;;;;;;;28.78;40.46;100628.88;5055837;28;69870;-38
2021/05/16 05:48:15;;;;;;;10.30;2.95;;;;;;;28.77;40.38;100626.38;5058446;28;65886;-36
2021/05/16 05:50:49;;;;;;;9.43;3.60;;;;;;;28.77;40.41;100626.38;5054029;28;70089;-36
2021/05/16 05:53:22;;;;;;;6.70;2.97;;;;;;;28.47;39.83;100573.75;5068674;28;67162;-39
2021/05/16 05:55:57;;;;;;;3.78;3.35;;;;;;;28.67;40.27;100602.53;5056048;28;70106;-37
2021/05/16 05:58:41;;;;;;;6.32;2.80;;;;;;;28.45;40.61;100565.03;5059066;28;65833;-38
2021/05/16 06:01:15;;;;;;;4.80;3.25;;;;;;;28.72;39.90;100613.50;5054664;28;69898;-38
2021/05/16 06:03:49;;;;;;;6.43;3.40;;;;;;;28.74;40.11;100606.03;5059721;28;65189;-36
2021/05/16 06:06:23;;;;;;;5.63;3.20;;;;;;;28.74;40.19;100606.03;5059151;28;69677;-37
2021/05/16 06:08:57;;;;;;;3.58;3.22;;;;;;;28.71;39.72;100601.06;5061478;28;66783;-37
2021/05/16 06:11:33;;;;;;;4.43;2.83;;;;;;;28.67;39.95;100583.66;5058269;28;69011;-36
2021/05/16 06:14:09;;;;;;;5.50;3.13;;;;;;;28.71;39.37;100585.69;5054193;28;66459;-39
2021/05/16 06:16:40;;;;;;;2.97;2.50;;;;;;;28.63;40.11;100577.81;5065036;28;70557;-37
2021/05/16 06:19:14;;;;;;;4.55;2.85;;;;;;;28.73;39.83;100590.91;5062761;27;66875;-37
2021/05/16 06:21:52;;;;;;;3.40;2.78;;;;;;;28.73;39.56;100582.78;5060753;28;70121;-39
2021/05/16 06:24:28;;;;;;;4.03;2.78;;;;;;;28.75;39.82;100569.88;5063404;28;66110;-38
2021/05/16 06:27:00;;;;;;;3.38;2.88;;;;;;;28.73;39.95;100575.53;5055922;28;70028;-36
2021/05/16 06:29:34;;;;;;;3.10;2.50;;;;;;;28.70;39.45;100550.84;5066386;27;65893;-37
2021/05/16 06:32:09;;;;;;;2.67;2.47;;;;;;;28.79;40.08;100564.91;5057766;28;69131;-37
2021/05/16 06:34:44;;;;;;;3.90;2.65;;;;;;;28.82;39.33;100562.59;5061259;28;65160;-37
2021/05/16 06:37:18;;;;;;;3.97;2.50;;;;;;;28.83;39.47;100553.47;5053626;28;70204;-37
2021/05/16 06:39:54;;;;;;;3.30;2.47;;;;;;;28.81;40.04;100554.75;5052865;28;67010;-37
2021/05/16 06:42:26;;;;;;;5.50;2.60;;;;;;;28.88;39.96;100556.34;5053368;28;68842;-36
2021/05/16 06:44:56;;;;;;;7.05;2.83;;;;;;;28.88;40.04;100539.31;5050340;28;65157;-36
2021/05/16 06:47:27;;;;;;;2.83;2.63;;;;;;;28.84;39.22;100520.03;5054184;28;69884;-36
2021/05/16 06:49:58;;;;;;;2.90;2.42;;;;;;;28.87;39.31;100519.59;5061125;28;66168;-36
2021/05/16 06:52:28;;;;;;;5.32;2.33;;;;;;;28.92;39.19;100521.66;5055172;28;69000;-37
2021/05/16 06:55:04;;;;;;;3.05;2.20;;;;;;;28.95;39.24;100530.16;5062375;28;66366;-37
2021/05/16 06:57:41;;;;;;;5.03;2.10;;;;;;;28.89;38.72;100517.53;5058096;28;69105;-36
2021/05/16 07:00:18;;;;;;;6.47;2.63;;;;;;;28.88;39.25;100509.63;5055730;28;66063;-36
2021/05/16 07:02:52;;;;;;;3.65;2.47;;;;;;;28.92;38.86;100506.28;5051914;28;68970;-36
2021/05/16 07:05:24;;;;;;;2.50;2.30;;;;;;;28.89;38.64;100493.22;5055270;27;65426;-37
2021/05/16 07:07:57;;;;;;;2.88;2.17;;;;;;;29.00;38.69;100513.28;5059063;28;69257;-36
2021/05/16 07:10:27;;;;;;;2.13;1.92;;;;;;;29.02;39.08;100492.31;5059340;28;66095;-38
2021/05/16 07:13:01;;;;;;;2.60;2.13;;;;;;;29.05;38.51;100493.78;5056247;28;70797;-37
2021/05/16 07:15:33;;;;;;;3.03;2.28;;;;;;;29.03;38.59;100499.41;5058251;28;66770;-36
2021/05/16 07:18:07;;;;;;;2.13;1.85;;;;;;;29.05;38.19;100510.81;5058930;28;70537;-36
2021/05/16 07:20:38;;;;;;;4.30;2.80;;;;;;;29.03;38.28;100506.63;5060251;28;66204;-35
2021/05/16 07:23:09;;;;;;;1.92;1.83;;;;;;;29.09;39.18;100511.22;5058140;28;70433;-36
2021/05/16 07:25:40;;;;;;;32.22;2.13;;;;;;;29.17;42.02;100508.25;5055051;28;66332;-35
2021/05/16 07:28:10;;;;;;;2.47;2.22;;;;;;;29.26;42.53;100501.53;5056470;28;69719;-37
2021/05/16 07:30:42;;;;;;;2.38;2.00;;;;;;;29.30;41.31;100497.34;5056409;28;66296;-36
2021/05/16 07:33:12;;;;;;;3.97;1.88;;;;;;;29.33;41.31;100502.31;5056072;28;69957;-38
2021/05/16 07:35:44;;;;;;;2.33;1.98;;;;;;;29.31;40.68;100499.00;5056933;28;65966;-37
2021/05/16 07:38:23;;;;;;;4.72;1.88;;;;;;;29.36;40.26;100501.03;5058032;28;69434;-36
2021/05/16 07:40:59;;;;;;;2.08;1.38;;;;;;;29.34;39.50;100493.16;5065809;28;66643;-37
2021/05/16 07:43:30;;;;;;;3.42;1.90;;;;;;;29.30;39.58;100486.53;5054005;28;69663;-36
2021/05/16 07:46:10;;;;;;;2.15;1.45;;;;;;;29.22;39.43;100470.59;5054175;28;66986;-36
2021/05/16 07:48:41;;;;;;;2.08;1.88;;;;;;;29.28;39.26;100480.53;5058439;28;69984;-36
2021/05/16 07:51:16;;;;;;;1.60;1.40;;;;;;;29.28;38.72;100472.44;5064312;27;65808;-36
2021/05/16 07:53:49;;;;;;;4.50;1.50;;;;;;;29.26;39.00;100463.72;5056915;28;70246;-36
2021/05/16 07:56:29;;;;;;;3.45;1.75;;;;;;;29.28;38.86;100464.34;5055164;28;65668;-38
2021/05/16 07:59:00;;;;;;;2.00;1.40;;;;;;;29.25;38.82;100462.03;5063346;28;69481;-37
2021/05/16 08:01:40;;;;;;;4.05;1.45;;;;;;;29.24;38.44;100456.88;5062183;28;66212;-37
2021/05/16 08:04:19;;;;;;;6.68;1.55;;;;;;;29.17;38.40;100443.44;5055796;28;70254;-40
2021/05/16 08:06:50;;;;;;;1.88;1.42;;;;;;;29.13;38.76;100431.41;5064007;27;65853;-38
2021/05/16 08:09:21;;;;;;;27.08;1.98;;;;;;;29.19;39.01;100427.81;5056634;28;69938;-36
2021/05/16 08:11:56;;;;;;;3.58;1.42;;;;;;;29.19;38.01;100438.63;5056265;28;66931;-37
2021/05/16 08:14:31;;;;;;;9.32;2.03;;;;;;;29.16;38.47;100420.16;5056447;28;69833;-37
2021/05/16 08:17:05;;;;;;;11.07;1.55;;;;;;;29.17;37.96;100424.53;5055819;28;65905;-38
2021/05/16 08:19:39;;;;;;;7.95;1.70;;;;;;;29.15;38.70;100429.31;5070164;28;70285;-37
2021/05/16 08:22:14;;;;;;;10.57;1.92;;;;;;;29.28;39.97;100431.91;5063073;28;66065;-38
2021/05/16 08:24:45;;;;;;;17.38;1.55;;;;;;;29.47;41.50;100429.25;5042538;28;69280;-37
2021/05/16 08:27:19;;;;;;;18.77;2.25;;;;;;;29.58;45.83;100415.81;5060677;28;65219;-36
2021/05/16 08:29:54;;;;;;;10.32;2.40;;;;;;;29.99;52.52;100421.69;5061765;27;69277;-36
2021/05/16 08:32:32;;;;;;;8.30;2.40;;;;;;;30.25;53.00;100417.88;5063409;28;67989;-36
2021/05/16 08:35:05;;;;;;;10.50;2.63;;;;;;;30.53;56.04;100414.59;5055750;28;70231;-37
2021/05/16 08:37:40;;;;;;;8.00;2.55;;;;;;;30.75;56.08;100403.25;5057702;28;66050;-37
2021/05/16 08:40:12;;;;;;;6.45;2.35;;;;;;;30.93;56.42;100387.81;5061541;28;69762;-37
2021/05/16 08:42:43;;;;;;;16.98;2.53;;;;;;;31.16;56.87;100389.72;5056977;28;64944;-35
2021/05/16 08:45:15;;;;;;;;;;;;;;;31.13;59.43;100394.78;5056299;28;70074;-36
2021/05/16 08:47:52;;;;;;;4.22;2.30;;;;;;;31.42;57.93;100384.91;5058646;28;66282;-37
2021/05/16 08:50:27;;;;;;;8.98;2.50;;;;;;;31.55;58.27;100390.09;5053609;28;70016;-37
2021/05/16 08:52:57;;;;;;;9.60;2.03;;;;;;;31.74;59.25;100403.53;5053293;28;65167;-38
2021/05/16 08:55:32;;;;;;;7.20;2.08;;;;;;;31.89;58.04;100408.47;5053665;28;69919;-37
2021/05/16 08:58:08;;;;;;;76.65;4.47;;;;;;;32.00;59.71;100410.38;5050553;28;66412;-39
2021/05/16 09:00:45;;;;;;;20.88;2.45;;;;;;;31.78;59.85;100355.88;5046829;28;70855;-38
2021/05/16 09:03:18;;;;;;;17.73;2.20;;;;;;;32.17;59.07;100402.28;5049025;28;66645;-37
2021/05/16 09:05:54;;;;;;;6.25;1.60;;;;;;;32.22;58.04;100418.69;5059969;27;70188;-37
2021/05/16 09:08:26;;;;;;;3.35;1.55;;;;;;;32.27;58.72;100407.94;5057352;28;66183;-36
2021/05/16 09:10:59;;;;;;;;;;;;;;;32.07;59.96;100402.94;5054973;28;70145;-37
2021/05/16 09:13:35;;;;;;;8.77;1.95;;;;;;;32.33;58.64;100411.56;5054560;28;66846;-37
2021/05/16 09:16:16;;;;;;;10.23;1.55;;;;;;;32.33;59.37;100409.69;5055933;28;69914;-37
2021/05/16 09:18:55;;;;;;;6.20;1.85;;;;;;;32.32;59.16;100389.03;5057182;28;65922;-37
2021/05/16 09:21:35;;;;;;;9.25;1.88;;;;;;;32.40;59.12;100410.38;5057469;28;70443;-39
2021/05/16 09:24:13;;;;;;;4.65;1.80;;;;;;;32.43;59.14;100415.31;5052039;28;66102;-38
2021/05/16 09:26:58;;;;;;;13.52;1.50;;;;;;;31.99;59.17;100347.16;5052014;28;70302;-37
2021/05/16 09:29:41;;;;;;;6.40;1.33;;;;;;;32.46;59.57;100422.19;5058974;28;66773;-37
2021/05/16 09:32:13;;;;;;;7.75;1.42;;;;;;;32.51;59.10;100418.72;5054335;28;70316;-39
2021/05/16 09:34:44;;;;;;;8.85;1.67;;;;;;;32.52;59.28;100426.63;5057897;28;65910;-37
2021/05/16 09:37:16;;;;;;;7.87;1.43;;;;;;;32.41;59.05;100408.47;5055451;28;69892;-38
2021/05/16 09:39:48;;;;;;;4.88;1.45;;;;;;;32.55;59.50;100422.63;5055549;28;65487;-38
2021/05/16 09:42:23;;;;;;;3.20;1.60;;;;;;;32.55;59.43;100428.06;5056671;28;69776;-39
2021/05/16 09:44:54;;;;;;;4.40;1.65;;;;;;;32.56;59.89;100422.34;5057851;28;66656;-39
2021/05/16 09:47:27;;;;;;;6.57;1.80;;;;;;;32.59;59.47;100426.47;5061294;28;68778;-38
2021/05/16 09:50:01;;;;;;;6.68;1.85;;;;;;;32.54;60.03;100410.09;5053608;28;65347;-38
2021/05/16 09:52:36;;;;;;;6.85;1.58;;;;;;;32.63;60.34;100424.94;5055800;28;69053;-37
2021/05/16 09:55:15;;;;;;;8.10;1.55;;;;;;;32.64;60.17;100434.72;5055882;28;66101;-38
2021/05/16 09:57:46;;;;;;;3.15;1.73;;;;;;;32.62;60.41;100434.13;5059637;28;70144;-38
2021/05/16 10:00:18;;;;;;;2.15;1.45;;;;;;;32.58;60.81;100430.28;5055091;28;65574;-37
2021/05/16 10:02:51;;;;;;;9.15;1.65;;;;;;;32.68;60.26;100450.31;5054819;28;69844;-38
2021/05/16 10:05:24;;;;;;;5.38;1.88;;;;;;;32.60;61.06;100439.00;5054150;28;65919;-38
2021/05/16 10:07:54;;;;;;;4.15;1.67;;;;;;;32.65;61.45;100447.22;5053191;28;69871;-38
2021/05/16 10:10:25;;;;;;;4.60;1.80;;;;;;;32.61;61.47;100441.47;5054243;28;65114;-38
2021/05/16 10:12:57;;;;;;;6.40;2.40;;;;;;;32.66;61.37;100452.44;5054700;28;69193;-39
2021/05/16 10:15:29;;;;;;;10.77;2.28;;;;;;;32.70;61.44;100455.47;5048436;28;66601;-37
2021/05/16 10:18:07;;;;;;;6.60;2.60;;;;;;;32.74;61.85;100451.22;5055064;28;69759;-37
2021/05/16 10:20:39;;;;;;;4.65;2.90;;;;;;;32.74;61.32;100437.66;5049296;28;66243;-37
2021/05/16 10:23:11;;;;;;;7.13;2.45;;;;;;;32.71;62.06;100424.56;5055080;28;70576;-37
2021/05/16 10:25:48;;;;;;;5.43;3.65;;;;;;;32.71;62.02;100422.66;5056366;28;65310;-37
2021/05/16 10:28:52;;;;;;;7.55;3.70;;;;;;;32.70;62.25;100436.47;5056647;28;70247;-37
2021/05/16 10:31:46;;;;;;;11.52;3.97;;;;;;;32.71;62.25;100430.00;5055709;28;65400;-37
2021/05/16 10:34:35;;;;;;;8.02;4.38;;;;;;;32.72;62.20;100429.72;5057557;28;70037;-37
2021/05/16 10:37:05;;;;;;;7.60;3.40;;;;;;;32.67;61.93;100415.22;5056740;28;66227;-38
2021/05/16 10:39:39;;;;;;;9.93;3.37;;;;;;;32.77;61.66;100430.91;5057751;28;70196;-37
2021/05/16 10:42:18;;;;;;;6.70;3.10;;;;;;;32.69;62.27;100427.50;5057004;28;64774;-38
2021/05/16 10:45:16;;;;;;;11.60;2.75;;;;;;;32.69;62.55;100434.84;5049915;28;69254;-38
2021/05/16 10:47:52;;;;;;;4.68;2.88;;;;;;;32.44;61.83;100380.84;5056453;28;65327;-37
2021/05/16 10:50:26;;;;;;;10.68;3.50;;;;;;;32.79;61.92;100435.03;5053181;28;68906;-37
2021/05/16 10:53:16;;;;;;;5.32;2.35;;;;;;;32.71;61.48;100410.97;5055657;28;66241;-38
2021/05/16 10:55:50;;;;;;;9.23;2.40;;;;;;;32.77;61.42;100420.84;5056753;28;69420;-37
2021/05/16 10:58:34;;;;;;;5.70;2.58;;;;;;;32.74;62.05;100423.25;5056689;28;65944;-37
2021/05/16 11:01:06;;;;;;;;;;;;;;;32.49;62.66;100417.09;5051752;28;70381;-37
2021/05/16 11:03:48;;;;;;;2.80;2.05;;;;;;;32.59;61.92;100388.47;5057397;28;65396;-37
2021/05/16 11:06:21;;;;;;;5.53;2.73;;;;;;;32.74;61.76;100418.63;5051626;28;69845;-38
2021/05/16 11:08:52;;;;;;;11.10;3.40;;;;;;;32.75;61.87;100414.84;5051961;28;65835;-38
2021/05/16 11:11:39;;;;;;;60.50;6.00;;;;;;;32.69;62.60;100411.22;5053331;28;69782;-38
2021/05/16 11:14:23;;;;;;;20.58;4.35;;;;;;;32.72;62.40;100416.16;5055495;28;66601;-40
2021/05/16 11:16:58;;;;;;;28.27;4.30;;;;;;;32.35;61.61;100350.56;5067892;27;70463;-36
2021/05/16 11:19:35;;;;;;;13.65;3.78;;;;;;;32.75;62.24;100424.88;5054844;28;66143;-36
2021/05/16 11:22:19;;;;;;;28.15;5.53;;;;;;;32.76;62.67;100430.06;5045477;28;70005;-37
2021/05/16 11:24:51;;;;;;;7.40;3.92;;;;;;;32.88;61.75;100441.69;5030604;28;66353;-38
2021/05/16 11:27:32;;;;;;;14.43;4.35;;;;;;;32.96;61.98;100447.78;5047497;28;69965;-36
2021/05/16 11:30:08;;;;;;;19.15;4.63;;;;;;;32.86;61.32;100416.66;5050514;28;65955;-35
2021/05/16 11:32:38;;;;;;;18.17;4.13;;;;;;;33.12;60.44;100444.31;5055202;28;69324;-35
2021/05/16 11:35:15;;;;;;;9.57;4.75;;;;;;;33.17;60.93;100444.38;5040530;28;66877;-34
2021/05/16 11:37:56;;;;;;;15.55;4.32;;;;;;;32.94;60.83;100405.41;5043561;28;69738;-35
2021/05/16 11:40:28;;;;;;;7.35;2.97;;;;;;;33.16;58.84;100450.91;5049404;28;64868;-36
2021/05/16 11:43:09;;;;;;;6.88;2.10;;;;;;;33.04;56.63;100441.97;5051612;28;70155;-36
2021/05/16 11:45:41;;;;;;;6.50;2.45;;;;;;;32.83;54.78;100452.47;5049855;28;66176;-34
2021/05/16 11:48:30;;;;;;;4.47;2.38;;;;;;;32.16;51.86;100385.19;5050041;28;69192;-34
2021/05/16 11:51:17;;;;;;;8.00;2.15;;;;;;;32.54;51.25;100472.53;5049449;28;65404;-34